<?xml version="1.0" encoding="UTF-8" standalone="no" ?>
<gpx xmlns="http://www.topografix.com/GPX/1/1" xmlns:xsi="http://www.w3.org/2001/XMLSchema-instance" xsi:schemaLocation="http://www.topografix.com/GPX/1/1 http://www.topografix.com/GPX/1/1/gpx.xsd" version="1.1" creator="VisuGPX - https://www.visugpx.com">
  <metadata>
    <name>Tracé actuel: 15 MAI 2020 16:54</name>
    <desc><![CDATA[Char à voile à St Brévin]]></desc>
  </metadata>
  <trk>
    <name><![CDATA[Tracé actuel: 15 MAI 2020 16:54]]></name>
    <trkseg>
      <trkpt lat="47.2318" lon="-2.18138">
        <ele>3.02</ele>
        <time>2020-05-15T14:54:32Z</time>
      </trkpt>
      <trkpt lat="47.2318" lon="-2.18138">
        <ele>0.62</ele>
        <time>2020-05-15T14:54:51Z</time>
      </trkpt>
      <trkpt lat="47.23181" lon="-2.18136">
        <ele>-0.82</ele>
        <time>2020-05-15T14:55:18Z</time>
      </trkpt>
      <trkpt lat="47.2318" lon="-2.18136">
        <ele>-2.75</ele>
        <time>2020-05-15T14:55:52Z</time>
      </trkpt>
      <trkpt lat="47.23181" lon="-2.18137">
        <ele>-2.27</ele>
        <time>2020-05-15T14:56:25Z</time>
      </trkpt>
      <trkpt lat="47.23181" lon="-2.18137">
        <ele>-1.79</ele>
        <time>2020-05-15T14:56:56Z</time>
      </trkpt>
      <trkpt lat="47.23181" lon="-2.18136">
        <ele>-2.27</ele>
        <time>2020-05-15T14:57:34Z</time>
      </trkpt>
      <trkpt lat="47.23181" lon="-2.18136">
        <ele>-2.75</ele>
        <time>2020-05-15T14:58:08Z</time>
      </trkpt>
      <trkpt lat="47.23181" lon="-2.18136">
        <ele>-4.19</ele>
        <time>2020-05-15T14:58:51Z</time>
      </trkpt>
      <trkpt lat="47.23181" lon="-2.18135">
        <ele>-4.19</ele>
        <time>2020-05-15T14:59:23Z</time>
      </trkpt>
      <trkpt lat="47.23181" lon="-2.18135">
        <ele>-5.15</ele>
        <time>2020-05-15T15:00:02Z</time>
      </trkpt>
      <trkpt lat="47.23181" lon="-2.18134">
        <ele>-5.15</ele>
        <time>2020-05-15T15:00:38Z</time>
      </trkpt>
      <trkpt lat="47.23181" lon="-2.18134">
        <ele>-5.63</ele>
        <time>2020-05-15T15:01:17Z</time>
      </trkpt>
      <trkpt lat="47.23181" lon="-2.18134">
        <ele>-5.63</ele>
        <time>2020-05-15T15:01:52Z</time>
      </trkpt>
      <trkpt lat="47.2318" lon="-2.18134">
        <ele>-5.63</ele>
        <time>2020-05-15T15:02:26Z</time>
      </trkpt>
      <trkpt lat="47.23182" lon="-2.18137">
        <ele>-5.15</ele>
        <time>2020-05-15T15:02:45Z</time>
      </trkpt>
      <trkpt lat="47.23183" lon="-2.18137">
        <ele>-4.67</ele>
        <time>2020-05-15T15:03:19Z</time>
      </trkpt>
      <trkpt lat="47.23182" lon="-2.18137">
        <ele>-4.67</ele>
        <time>2020-05-15T15:03:48Z</time>
      </trkpt>
      <trkpt lat="47.23182" lon="-2.18136">
        <ele>-4.19</ele>
        <time>2020-05-15T15:03:55Z</time>
      </trkpt>
      <trkpt lat="47.23176" lon="-2.18133">
        <ele>-4.19</ele>
        <time>2020-05-15T15:04:01Z</time>
      </trkpt>
      <trkpt lat="47.23171" lon="-2.18137">
        <ele>-3.23</ele>
        <time>2020-05-15T15:04:07Z</time>
      </trkpt>
      <trkpt lat="47.23176" lon="-2.18175">
        <ele>-2.75</ele>
        <time>2020-05-15T15:04:27Z</time>
      </trkpt>
      <trkpt lat="47.23182" lon="-2.18198">
        <ele>-3.23</ele>
        <time>2020-05-15T15:04:31Z</time>
      </trkpt>
      <trkpt lat="47.23167" lon="-2.18219">
        <ele>-3.71</ele>
        <time>2020-05-15T15:04:36Z</time>
      </trkpt>
      <trkpt lat="47.23164" lon="-2.18213">
        <ele>-4.19</ele>
        <time>2020-05-15T15:04:37Z</time>
      </trkpt>
      <trkpt lat="47.23123" lon="-2.1811">
        <ele>-3.71</ele>
        <time>2020-05-15T15:04:51Z</time>
      </trkpt>
      <trkpt lat="47.2311" lon="-2.18086">
        <ele>-3.71</ele>
        <time>2020-05-15T15:04:54Z</time>
      </trkpt>
      <trkpt lat="47.23102" lon="-2.18061">
        <ele>-3.23</ele>
        <time>2020-05-15T15:04:57Z</time>
      </trkpt>
      <trkpt lat="47.23084" lon="-2.18063">
        <ele>-3.23</ele>
        <time>2020-05-15T15:05:02Z</time>
      </trkpt>
      <trkpt lat="47.23082" lon="-2.18089">
        <ele>-3.23</ele>
        <time>2020-05-15T15:05:05Z</time>
      </trkpt>
      <trkpt lat="47.23087" lon="-2.18132">
        <ele>-3.71</ele>
        <time>2020-05-15T15:05:10Z</time>
      </trkpt>
      <trkpt lat="47.2306" lon="-2.18187">
        <ele>-4.67</ele>
        <time>2020-05-15T15:05:17Z</time>
      </trkpt>
      <trkpt lat="47.23054" lon="-2.18183">
        <ele>-5.15</ele>
        <time>2020-05-15T15:05:18Z</time>
      </trkpt>
      <trkpt lat="47.23035" lon="-2.18172">
        <ele>-5.15</ele>
        <time>2020-05-15T15:05:21Z</time>
      </trkpt>
      <trkpt lat="47.23009" lon="-2.18151">
        <ele>-5.63</ele>
        <time>2020-05-15T15:05:26Z</time>
      </trkpt>
      <trkpt lat="47.23" lon="-2.18123">
        <ele>-5.63</ele>
        <time>2020-05-15T15:05:31Z</time>
      </trkpt>
      <trkpt lat="47.22997" lon="-2.18067">
        <ele>-3.71</ele>
        <time>2020-05-15T15:05:45Z</time>
      </trkpt>
      <trkpt lat="47.22991" lon="-2.18033">
        <ele>-2.75</ele>
        <time>2020-05-15T15:06:03Z</time>
      </trkpt>
      <trkpt lat="47.22991" lon="-2.18032">
        <ele>-2.75</ele>
        <time>2020-05-15T15:06:22Z</time>
      </trkpt>
      <trkpt lat="47.2299" lon="-2.18031">
        <ele>-2.75</ele>
        <time>2020-05-15T15:06:28Z</time>
      </trkpt>
      <trkpt lat="47.22983" lon="-2.18027">
        <ele>-3.23</ele>
        <time>2020-05-15T15:06:47Z</time>
      </trkpt>
      <trkpt lat="47.22982" lon="-2.18027">
        <ele>-3.23</ele>
        <time>2020-05-15T15:06:50Z</time>
      </trkpt>
      <trkpt lat="47.22973" lon="-2.18042">
        <ele>-3.23</ele>
        <time>2020-05-15T15:07:08Z</time>
      </trkpt>
      <trkpt lat="47.22973" lon="-2.18043">
        <ele>-3.23</ele>
        <time>2020-05-15T15:07:09Z</time>
      </trkpt>
      <trkpt lat="47.22969" lon="-2.18088">
        <ele>-3.71</ele>
        <time>2020-05-15T15:07:19Z</time>
      </trkpt>
      <trkpt lat="47.22943" lon="-2.18148">
        <ele>-4.19</ele>
        <time>2020-05-15T15:07:26Z</time>
      </trkpt>
      <trkpt lat="47.22925" lon="-2.18136">
        <ele>-4.67</ele>
        <time>2020-05-15T15:07:29Z</time>
      </trkpt>
      <trkpt lat="47.22874" lon="-2.18069">
        <ele>-4.67</ele>
        <time>2020-05-15T15:07:38Z</time>
      </trkpt>
      <trkpt lat="47.22813" lon="-2.18002">
        <ele>-4.67</ele>
        <time>2020-05-15T15:07:47Z</time>
      </trkpt>
      <trkpt lat="47.22784" lon="-2.18">
        <ele>-4.19</ele>
        <time>2020-05-15T15:07:51Z</time>
      </trkpt>
      <trkpt lat="47.22757" lon="-2.18021">
        <ele>-4.67</ele>
        <time>2020-05-15T15:07:55Z</time>
      </trkpt>
      <trkpt lat="47.22734" lon="-2.17995">
        <ele>-5.15</ele>
        <time>2020-05-15T15:08:00Z</time>
      </trkpt>
      <trkpt lat="47.22681" lon="-2.1786">
        <ele>-3.71</ele>
        <time>2020-05-15T15:08:13Z</time>
      </trkpt>
      <trkpt lat="47.22677" lon="-2.17851">
        <ele>-3.71</ele>
        <time>2020-05-15T15:08:14Z</time>
      </trkpt>
      <trkpt lat="47.22652" lon="-2.17819">
        <ele>-3.23</ele>
        <time>2020-05-15T15:08:20Z</time>
      </trkpt>
      <trkpt lat="47.22658" lon="-2.17846">
        <ele>-3.23</ele>
        <time>2020-05-15T15:08:24Z</time>
      </trkpt>
      <trkpt lat="47.22666" lon="-2.17855">
        <ele>-3.23</ele>
        <time>2020-05-15T15:08:26Z</time>
      </trkpt>
      <trkpt lat="47.22673" lon="-2.17866">
        <ele>-3.23</ele>
        <time>2020-05-15T15:08:28Z</time>
      </trkpt>
      <trkpt lat="47.22722" lon="-2.1796">
        <ele>-3.71</ele>
        <time>2020-05-15T15:08:43Z</time>
      </trkpt>
      <trkpt lat="47.22784" lon="-2.18076">
        <ele>-4.19</ele>
        <time>2020-05-15T15:08:55Z</time>
      </trkpt>
      <trkpt lat="47.22808" lon="-2.18072">
        <ele>-4.67</ele>
        <time>2020-05-15T15:08:59Z</time>
      </trkpt>
      <trkpt lat="47.22829" lon="-2.18022">
        <ele>-4.67</ele>
        <time>2020-05-15T15:09:06Z</time>
      </trkpt>
      <trkpt lat="47.22846" lon="-2.1802">
        <ele>-4.67</ele>
        <time>2020-05-15T15:09:11Z</time>
      </trkpt>
      <trkpt lat="47.22877" lon="-2.18078">
        <ele>-4.67</ele>
        <time>2020-05-15T15:09:21Z</time>
      </trkpt>
      <trkpt lat="47.22945" lon="-2.18162">
        <ele>-5.15</ele>
        <time>2020-05-15T15:09:34Z</time>
      </trkpt>
      <trkpt lat="47.22965" lon="-2.18143">
        <ele>-5.15</ele>
        <time>2020-05-15T15:09:39Z</time>
      </trkpt>
      <trkpt lat="47.22972" lon="-2.1813">
        <ele>-5.15</ele>
        <time>2020-05-15T15:09:41Z</time>
      </trkpt>
      <trkpt lat="47.2298" lon="-2.18094">
        <ele>-4.67</ele>
        <time>2020-05-15T15:09:47Z</time>
      </trkpt>
      <trkpt lat="47.22988" lon="-2.18059">
        <ele>-3.71</ele>
        <time>2020-05-15T15:09:55Z</time>
      </trkpt>
      <trkpt lat="47.22997" lon="-2.1806">
        <ele>-3.71</ele>
        <time>2020-05-15T15:09:59Z</time>
      </trkpt>
      <trkpt lat="47.23027" lon="-2.18107">
        <ele>-3.71</ele>
        <time>2020-05-15T15:10:12Z</time>
      </trkpt>
      <trkpt lat="47.23072" lon="-2.18165">
        <ele>-5.15</ele>
        <time>2020-05-15T15:10:22Z</time>
      </trkpt>
      <trkpt lat="47.23092" lon="-2.18194">
        <ele>-5.15</ele>
        <time>2020-05-15T15:10:26Z</time>
      </trkpt>
      <trkpt lat="47.23127" lon="-2.18225">
        <ele>-5.15</ele>
        <time>2020-05-15T15:10:32Z</time>
      </trkpt>
      <trkpt lat="47.23153" lon="-2.1826">
        <ele>-5.63</ele>
        <time>2020-05-15T15:10:37Z</time>
      </trkpt>
      <trkpt lat="47.23177" lon="-2.18254">
        <ele>-6.11</ele>
        <time>2020-05-15T15:10:42Z</time>
      </trkpt>
      <trkpt lat="47.23186" lon="-2.18232">
        <ele>-6.11</ele>
        <time>2020-05-15T15:10:45Z</time>
      </trkpt>
      <trkpt lat="47.23195" lon="-2.18209">
        <ele>-5.63</ele>
        <time>2020-05-15T15:10:48Z</time>
      </trkpt>
      <trkpt lat="47.23212" lon="-2.1821">
        <ele>-4.67</ele>
        <time>2020-05-15T15:10:52Z</time>
      </trkpt>
      <trkpt lat="47.23217" lon="-2.18223">
        <ele>-4.67</ele>
        <time>2020-05-15T15:10:54Z</time>
      </trkpt>
      <trkpt lat="47.23241" lon="-2.18255">
        <ele>-4.67</ele>
        <time>2020-05-15T15:10:59Z</time>
      </trkpt>
      <trkpt lat="47.23308" lon="-2.18337">
        <ele>-5.15</ele>
        <time>2020-05-15T15:11:12Z</time>
      </trkpt>
      <trkpt lat="47.23344" lon="-2.18375">
        <ele>-5.15</ele>
        <time>2020-05-15T15:11:18Z</time>
      </trkpt>
      <trkpt lat="47.2336" lon="-2.18365">
        <ele>-5.63</ele>
        <time>2020-05-15T15:11:23Z</time>
      </trkpt>
      <trkpt lat="47.23348" lon="-2.18344">
        <ele>-5.15</ele>
        <time>2020-05-15T15:11:26Z</time>
      </trkpt>
      <trkpt lat="47.23302" lon="-2.18278">
        <ele>-4.67</ele>
        <time>2020-05-15T15:11:34Z</time>
      </trkpt>
      <trkpt lat="47.23234" lon="-2.18216">
        <ele>-4.67</ele>
        <time>2020-05-15T15:11:44Z</time>
      </trkpt>
      <trkpt lat="47.23207" lon="-2.18229">
        <ele>-4.19</ele>
        <time>2020-05-15T15:11:49Z</time>
      </trkpt>
      <trkpt lat="47.23158" lon="-2.18273">
        <ele>-4.67</ele>
        <time>2020-05-15T15:11:58Z</time>
      </trkpt>
      <trkpt lat="47.2314" lon="-2.18244">
        <ele>-5.15</ele>
        <time>2020-05-15T15:12:03Z</time>
      </trkpt>
      <trkpt lat="47.23139" lon="-2.18228">
        <ele>-5.15</ele>
        <time>2020-05-15T15:12:05Z</time>
      </trkpt>
      <trkpt lat="47.23123" lon="-2.18209">
        <ele>-4.67</ele>
        <time>2020-05-15T15:12:09Z</time>
      </trkpt>
      <trkpt lat="47.23111" lon="-2.18169">
        <ele>-4.67</ele>
        <time>2020-05-15T15:12:15Z</time>
      </trkpt>
      <trkpt lat="47.23077" lon="-2.18114">
        <ele>-3.71</ele>
        <time>2020-05-15T15:12:23Z</time>
      </trkpt>
      <trkpt lat="47.23072" lon="-2.1812">
        <ele>-3.71</ele>
        <time>2020-05-15T15:12:24Z</time>
      </trkpt>
      <trkpt lat="47.23063" lon="-2.18134">
        <ele>-3.71</ele>
        <time>2020-05-15T15:12:26Z</time>
      </trkpt>
      <trkpt lat="47.23035" lon="-2.18164">
        <ele>-4.67</ele>
        <time>2020-05-15T15:12:31Z</time>
      </trkpt>
      <trkpt lat="47.23026" lon="-2.18177">
        <ele>-4.67</ele>
        <time>2020-05-15T15:12:33Z</time>
      </trkpt>
      <trkpt lat="47.23" lon="-2.18176">
        <ele>-4.67</ele>
        <time>2020-05-15T15:12:39Z</time>
      </trkpt>
      <trkpt lat="47.22992" lon="-2.1814">
        <ele>-4.19</ele>
        <time>2020-05-15T15:12:44Z</time>
      </trkpt>
      <trkpt lat="47.22936" lon="-2.18051">
        <ele>-3.71</ele>
        <time>2020-05-15T15:12:57Z</time>
      </trkpt>
      <trkpt lat="47.22886" lon="-2.18001">
        <ele>-3.71</ele>
        <time>2020-05-15T15:13:07Z</time>
      </trkpt>
      <trkpt lat="47.22869" lon="-2.17972">
        <ele>-4.19</ele>
        <time>2020-05-15T15:13:12Z</time>
      </trkpt>
      <trkpt lat="47.22856" lon="-2.17984">
        <ele>-3.71</ele>
        <time>2020-05-15T15:13:18Z</time>
      </trkpt>
      <trkpt lat="47.22859" lon="-2.18022">
        <ele>-3.71</ele>
        <time>2020-05-15T15:13:23Z</time>
      </trkpt>
      <trkpt lat="47.22835" lon="-2.18095">
        <ele>-3.71</ele>
        <time>2020-05-15T15:13:33Z</time>
      </trkpt>
      <trkpt lat="47.22807" lon="-2.18085">
        <ele>-4.19</ele>
        <time>2020-05-15T15:13:40Z</time>
      </trkpt>
      <trkpt lat="47.22752" lon="-2.17989">
        <ele>-3.71</ele>
        <time>2020-05-15T15:13:53Z</time>
      </trkpt>
      <trkpt lat="47.2268" lon="-2.17908">
        <ele>-3.23</ele>
        <time>2020-05-15T15:14:02Z</time>
      </trkpt>
      <trkpt lat="47.22595" lon="-2.17817">
        <ele>-3.71</ele>
        <time>2020-05-15T15:14:11Z</time>
      </trkpt>
      <trkpt lat="47.22551" lon="-2.17784">
        <ele>-3.23</ele>
        <time>2020-05-15T15:14:15Z</time>
      </trkpt>
      <trkpt lat="47.22506" lon="-2.1774">
        <ele>-3.23</ele>
        <time>2020-05-15T15:14:19Z</time>
      </trkpt>
      <trkpt lat="47.22378" lon="-2.17643">
        <ele>-3.23</ele>
        <time>2020-05-15T15:14:30Z</time>
      </trkpt>
      <trkpt lat="47.22282" lon="-2.17573">
        <ele>-3.23</ele>
        <time>2020-05-15T15:14:40Z</time>
      </trkpt>
      <trkpt lat="47.22196" lon="-2.17492">
        <ele>-2.75</ele>
        <time>2020-05-15T15:14:49Z</time>
      </trkpt>
      <trkpt lat="47.22109" lon="-2.17424">
        <ele>-3.23</ele>
        <time>2020-05-15T15:14:58Z</time>
      </trkpt>
      <trkpt lat="47.22098" lon="-2.17368">
        <ele>-3.71</ele>
        <time>2020-05-15T15:15:03Z</time>
      </trkpt>
      <trkpt lat="47.22105" lon="-2.17347">
        <ele>-3.23</ele>
        <time>2020-05-15T15:15:05Z</time>
      </trkpt>
      <trkpt lat="47.22132" lon="-2.17335">
        <ele>-2.75</ele>
        <time>2020-05-15T15:15:10Z</time>
      </trkpt>
      <trkpt lat="47.22136" lon="-2.17343">
        <ele>-2.75</ele>
        <time>2020-05-15T15:15:11Z</time>
      </trkpt>
      <trkpt lat="47.22165" lon="-2.17401">
        <ele>-2.75</ele>
        <time>2020-05-15T15:15:17Z</time>
      </trkpt>
      <trkpt lat="47.222" lon="-2.17483">
        <ele>-3.23</ele>
        <time>2020-05-15T15:15:24Z</time>
      </trkpt>
      <trkpt lat="47.22218" lon="-2.1751">
        <ele>-3.23</ele>
        <time>2020-05-15T15:15:27Z</time>
      </trkpt>
      <trkpt lat="47.2226" lon="-2.17571">
        <ele>-3.71</ele>
        <time>2020-05-15T15:15:35Z</time>
      </trkpt>
      <trkpt lat="47.22303" lon="-2.17646">
        <ele>-4.67</ele>
        <time>2020-05-15T15:15:44Z</time>
      </trkpt>
      <trkpt lat="47.22328" lon="-2.17681">
        <ele>-5.15</ele>
        <time>2020-05-15T15:15:48Z</time>
      </trkpt>
      <trkpt lat="47.22355" lon="-2.17723">
        <ele>-5.15</ele>
        <time>2020-05-15T15:15:53Z</time>
      </trkpt>
      <trkpt lat="47.22378" lon="-2.17718">
        <ele>-6.11</ele>
        <time>2020-05-15T15:15:58Z</time>
      </trkpt>
      <trkpt lat="47.22381" lon="-2.17705">
        <ele>-6.11</ele>
        <time>2020-05-15T15:16:00Z</time>
      </trkpt>
      <trkpt lat="47.22387" lon="-2.17623">
        <ele>-5.15</ele>
        <time>2020-05-15T15:16:10Z</time>
      </trkpt>
      <trkpt lat="47.22404" lon="-2.17568">
        <ele>-3.71</ele>
        <time>2020-05-15T15:16:16Z</time>
      </trkpt>
      <trkpt lat="47.22428" lon="-2.1756">
        <ele>-3.71</ele>
        <time>2020-05-15T15:16:22Z</time>
      </trkpt>
      <trkpt lat="47.22438" lon="-2.17584">
        <ele>-3.23</ele>
        <time>2020-05-15T15:16:27Z</time>
      </trkpt>
      <trkpt lat="47.22454" lon="-2.17605">
        <ele>-3.71</ele>
        <time>2020-05-15T15:16:32Z</time>
      </trkpt>
      <trkpt lat="47.22464" lon="-2.17634">
        <ele>-3.71</ele>
        <time>2020-05-15T15:16:36Z</time>
      </trkpt>
      <trkpt lat="47.22492" lon="-2.17678">
        <ele>-4.19</ele>
        <time>2020-05-15T15:16:42Z</time>
      </trkpt>
      <trkpt lat="47.22572" lon="-2.17806">
        <ele>-5.15</ele>
        <time>2020-05-15T15:16:58Z</time>
      </trkpt>
      <trkpt lat="47.2266" lon="-2.17916">
        <ele>-6.11</ele>
        <time>2020-05-15T15:17:12Z</time>
      </trkpt>
      <trkpt lat="47.22741" lon="-2.17993">
        <ele>-6.11</ele>
        <time>2020-05-15T15:17:24Z</time>
      </trkpt>
      <trkpt lat="47.22825" lon="-2.18093">
        <ele>-6.11</ele>
        <time>2020-05-15T15:17:36Z</time>
      </trkpt>
      <trkpt lat="47.22922" lon="-2.1815">
        <ele>-6.11</ele>
        <time>2020-05-15T15:17:46Z</time>
      </trkpt>
      <trkpt lat="47.22974" lon="-2.18146">
        <ele>-6.11</ele>
        <time>2020-05-15T15:17:53Z</time>
      </trkpt>
      <trkpt lat="47.22988" lon="-2.18154">
        <ele>-6.11</ele>
        <time>2020-05-15T15:17:56Z</time>
      </trkpt>
      <trkpt lat="47.23042" lon="-2.18204">
        <ele>-6.59</ele>
        <time>2020-05-15T15:18:15Z</time>
      </trkpt>
      <trkpt lat="47.23081" lon="-2.18239">
        <ele>-6.59</ele>
        <time>2020-05-15T15:18:37Z</time>
      </trkpt>
      <trkpt lat="47.23109" lon="-2.18258">
        <ele>-7.07</ele>
        <time>2020-05-15T15:18:49Z</time>
      </trkpt>
      <trkpt lat="47.23119" lon="-2.1825">
        <ele>-7.07</ele>
        <time>2020-05-15T15:18:53Z</time>
      </trkpt>
      <trkpt lat="47.23118" lon="-2.18234">
        <ele>-6.59</ele>
        <time>2020-05-15T15:19:04Z</time>
      </trkpt>
      <trkpt lat="47.23115" lon="-2.1822">
        <ele>-6.11</ele>
        <time>2020-05-15T15:19:22Z</time>
      </trkpt>
      <trkpt lat="47.2311" lon="-2.18204">
        <ele>-5.63</ele>
        <time>2020-05-15T15:19:35Z</time>
      </trkpt>
      <trkpt lat="47.23102" lon="-2.18205">
        <ele>-5.63</ele>
        <time>2020-05-15T15:19:44Z</time>
      </trkpt>
      <trkpt lat="47.23103" lon="-2.18214">
        <ele>-5.63</ele>
        <time>2020-05-15T15:19:48Z</time>
      </trkpt>
      <trkpt lat="47.23123" lon="-2.18261">
        <ele>-6.59</ele>
        <time>2020-05-15T15:20:01Z</time>
      </trkpt>
      <trkpt lat="47.23131" lon="-2.18252">
        <ele>-6.59</ele>
        <time>2020-05-15T15:20:06Z</time>
      </trkpt>
      <trkpt lat="47.23125" lon="-2.18245">
        <ele>-7.07</ele>
        <time>2020-05-15T15:20:08Z</time>
      </trkpt>
      <trkpt lat="47.23094" lon="-2.18203">
        <ele>-7.07</ele>
        <time>2020-05-15T15:20:23Z</time>
      </trkpt>
      <trkpt lat="47.23067" lon="-2.18144">
        <ele>-6.11</ele>
        <time>2020-05-15T15:20:40Z</time>
      </trkpt>
      <trkpt lat="47.23022" lon="-2.18095">
        <ele>-5.15</ele>
        <time>2020-05-15T15:20:56Z</time>
      </trkpt>
      <trkpt lat="47.22987" lon="-2.1805">
        <ele>-4.67</ele>
        <time>2020-05-15T15:21:11Z</time>
      </trkpt>
      <trkpt lat="47.2298" lon="-2.18058">
        <ele>-5.15</ele>
        <time>2020-05-15T15:21:16Z</time>
      </trkpt>
      <trkpt lat="47.22991" lon="-2.18098">
        <ele>-5.15</ele>
        <time>2020-05-15T15:21:28Z</time>
      </trkpt>
      <trkpt lat="47.22984" lon="-2.1817">
        <ele>-6.11</ele>
        <time>2020-05-15T15:21:37Z</time>
      </trkpt>
      <trkpt lat="47.22961" lon="-2.18163">
        <ele>-6.59</ele>
        <time>2020-05-15T15:21:41Z</time>
      </trkpt>
      <trkpt lat="47.22958" lon="-2.18156">
        <ele>-6.59</ele>
        <time>2020-05-15T15:21:42Z</time>
      </trkpt>
      <trkpt lat="47.22953" lon="-2.18137">
        <ele>-6.59</ele>
        <time>2020-05-15T15:21:44Z</time>
      </trkpt>
      <trkpt lat="47.22926" lon="-2.18088">
        <ele>-6.11</ele>
        <time>2020-05-15T15:21:49Z</time>
      </trkpt>
      <trkpt lat="47.2289" lon="-2.18035">
        <ele>-5.63</ele>
        <time>2020-05-15T15:21:54Z</time>
      </trkpt>
      <trkpt lat="47.22831" lon="-2.17976">
        <ele>-5.15</ele>
        <time>2020-05-15T15:22:02Z</time>
      </trkpt>
      <trkpt lat="47.22753" lon="-2.17901">
        <ele>-4.67</ele>
        <time>2020-05-15T15:22:13Z</time>
      </trkpt>
      <trkpt lat="47.22745" lon="-2.17897">
        <ele>-4.67</ele>
        <time>2020-05-15T15:22:14Z</time>
      </trkpt>
      <trkpt lat="47.22701" lon="-2.17833">
        <ele>-4.67</ele>
        <time>2020-05-15T15:22:22Z</time>
      </trkpt>
      <trkpt lat="47.22663" lon="-2.17774">
        <ele>-4.19</ele>
        <time>2020-05-15T15:22:29Z</time>
      </trkpt>
      <trkpt lat="47.22635" lon="-2.17789">
        <ele>-3.71</ele>
        <time>2020-05-15T15:22:34Z</time>
      </trkpt>
      <trkpt lat="47.22629" lon="-2.17807">
        <ele>-3.71</ele>
        <time>2020-05-15T15:22:36Z</time>
      </trkpt>
      <trkpt lat="47.22622" lon="-2.17825">
        <ele>-3.71</ele>
        <time>2020-05-15T15:22:38Z</time>
      </trkpt>
      <trkpt lat="47.22604" lon="-2.17855">
        <ele>-4.19</ele>
        <time>2020-05-15T15:22:42Z</time>
      </trkpt>
      <trkpt lat="47.22593" lon="-2.17866">
        <ele>-4.19</ele>
        <time>2020-05-15T15:22:44Z</time>
      </trkpt>
      <trkpt lat="47.22556" lon="-2.17861">
        <ele>-4.67</ele>
        <time>2020-05-15T15:22:51Z</time>
      </trkpt>
      <trkpt lat="47.22542" lon="-2.17831">
        <ele>-4.19</ele>
        <time>2020-05-15T15:22:55Z</time>
      </trkpt>
      <trkpt lat="47.22475" lon="-2.17734">
        <ele>-3.71</ele>
        <time>2020-05-15T15:23:10Z</time>
      </trkpt>
      <trkpt lat="47.22459" lon="-2.177">
        <ele>-3.23</ele>
        <time>2020-05-15T15:23:15Z</time>
      </trkpt>
      <trkpt lat="47.22406" lon="-2.17628">
        <ele>-2.75</ele>
        <time>2020-05-15T15:23:24Z</time>
      </trkpt>
      <trkpt lat="47.22287" lon="-2.17534">
        <ele>-2.75</ele>
        <time>2020-05-15T15:23:36Z</time>
      </trkpt>
      <trkpt lat="47.22188" lon="-2.1745">
        <ele>-2.75</ele>
        <time>2020-05-15T15:23:46Z</time>
      </trkpt>
      <trkpt lat="47.22178" lon="-2.17443">
        <ele>-2.75</ele>
        <time>2020-05-15T15:23:47Z</time>
      </trkpt>
      <trkpt lat="47.22056" lon="-2.17306">
        <ele>-2.75</ele>
        <time>2020-05-15T15:24:02Z</time>
      </trkpt>
      <trkpt lat="47.22023" lon="-2.17277">
        <ele>-2.75</ele>
        <time>2020-05-15T15:24:06Z</time>
      </trkpt>
      <trkpt lat="47.21961" lon="-2.17282">
        <ele>-3.23</ele>
        <time>2020-05-15T15:24:13Z</time>
      </trkpt>
      <trkpt lat="47.21966" lon="-2.17322">
        <ele>-3.71</ele>
        <time>2020-05-15T15:24:17Z</time>
      </trkpt>
      <trkpt lat="47.2197" lon="-2.1733">
        <ele>-3.71</ele>
        <time>2020-05-15T15:24:18Z</time>
      </trkpt>
      <trkpt lat="47.22043" lon="-2.17439">
        <ele>-4.19</ele>
        <time>2020-05-15T15:24:32Z</time>
      </trkpt>
      <trkpt lat="47.22151" lon="-2.17572">
        <ele>-4.67</ele>
        <time>2020-05-15T15:24:47Z</time>
      </trkpt>
      <trkpt lat="47.22226" lon="-2.1765">
        <ele>-5.15</ele>
        <time>2020-05-15T15:24:58Z</time>
      </trkpt>
      <trkpt lat="47.22238" lon="-2.17662">
        <ele>-5.15</ele>
        <time>2020-05-15T15:25:00Z</time>
      </trkpt>
      <trkpt lat="47.22253" lon="-2.17641">
        <ele>-5.15</ele>
        <time>2020-05-15T15:25:05Z</time>
      </trkpt>
      <trkpt lat="47.22268" lon="-2.17621">
        <ele>-5.15</ele>
        <time>2020-05-15T15:25:11Z</time>
      </trkpt>
      <trkpt lat="47.22271" lon="-2.17625">
        <ele>-5.15</ele>
        <time>2020-05-15T15:25:12Z</time>
      </trkpt>
      <trkpt lat="47.22288" lon="-2.17661">
        <ele>-5.15</ele>
        <time>2020-05-15T15:25:19Z</time>
      </trkpt>
      <trkpt lat="47.22296" lon="-2.17669">
        <ele>-5.63</ele>
        <time>2020-05-15T15:25:21Z</time>
      </trkpt>
      <trkpt lat="47.22312" lon="-2.17683">
        <ele>-5.63</ele>
        <time>2020-05-15T15:25:25Z</time>
      </trkpt>
      <trkpt lat="47.22322" lon="-2.17696">
        <ele>-5.63</ele>
        <time>2020-05-15T15:25:28Z</time>
      </trkpt>
      <trkpt lat="47.22336" lon="-2.17718">
        <ele>-5.63</ele>
        <time>2020-05-15T15:25:32Z</time>
      </trkpt>
      <trkpt lat="47.22351" lon="-2.17711">
        <ele>-6.11</ele>
        <time>2020-05-15T15:25:37Z</time>
      </trkpt>
      <trkpt lat="47.22341" lon="-2.17682">
        <ele>-5.63</ele>
        <time>2020-05-15T15:25:41Z</time>
      </trkpt>
      <trkpt lat="47.22314" lon="-2.17635">
        <ele>-5.15</ele>
        <time>2020-05-15T15:25:50Z</time>
      </trkpt>
      <trkpt lat="47.22297" lon="-2.17588">
        <ele>-4.67</ele>
        <time>2020-05-15T15:26:05Z</time>
      </trkpt>
      <trkpt lat="47.22294" lon="-2.17607">
        <ele>-4.67</ele>
        <time>2020-05-15T15:26:13Z</time>
      </trkpt>
      <trkpt lat="47.22295" lon="-2.17622">
        <ele>-4.67</ele>
        <time>2020-05-15T15:26:15Z</time>
      </trkpt>
      <trkpt lat="47.22293" lon="-2.17698">
        <ele>-5.15</ele>
        <time>2020-05-15T15:26:24Z</time>
      </trkpt>
      <trkpt lat="47.22281" lon="-2.17691">
        <ele>-5.63</ele>
        <time>2020-05-15T15:26:26Z</time>
      </trkpt>
      <trkpt lat="47.22226" lon="-2.17612">
        <ele>-5.15</ele>
        <time>2020-05-15T15:26:36Z</time>
      </trkpt>
      <trkpt lat="47.22207" lon="-2.17583">
        <ele>-4.19</ele>
        <time>2020-05-15T15:26:40Z</time>
      </trkpt>
      <trkpt lat="47.22167" lon="-2.17554">
        <ele>-4.19</ele>
        <time>2020-05-15T15:26:46Z</time>
      </trkpt>
      <trkpt lat="47.22154" lon="-2.17576">
        <ele>-4.19</ele>
        <time>2020-05-15T15:26:50Z</time>
      </trkpt>
      <trkpt lat="47.2217" lon="-2.17584">
        <ele>-4.19</ele>
        <time>2020-05-15T15:26:53Z</time>
      </trkpt>
      <trkpt lat="47.2225" lon="-2.17661">
        <ele>-4.67</ele>
        <time>2020-05-15T15:27:06Z</time>
      </trkpt>
      <trkpt lat="47.22273" lon="-2.17649">
        <ele>-4.67</ele>
        <time>2020-05-15T15:27:11Z</time>
      </trkpt>
      <trkpt lat="47.22246" lon="-2.17632">
        <ele>-4.19</ele>
        <time>2020-05-15T15:27:16Z</time>
      </trkpt>
      <trkpt lat="47.22165" lon="-2.17548">
        <ele>-3.71</ele>
        <time>2020-05-15T15:27:29Z</time>
      </trkpt>
      <trkpt lat="47.22076" lon="-2.17466">
        <ele>-3.71</ele>
        <time>2020-05-15T15:27:41Z</time>
      </trkpt>
      <trkpt lat="47.21977" lon="-2.17346">
        <ele>-3.23</ele>
        <time>2020-05-15T15:27:54Z</time>
      </trkpt>
      <trkpt lat="47.21877" lon="-2.17239">
        <ele>-3.71</ele>
        <time>2020-05-15T15:28:05Z</time>
      </trkpt>
      <trkpt lat="47.21803" lon="-2.17161">
        <ele>-4.67</ele>
        <time>2020-05-15T15:28:12Z</time>
      </trkpt>
      <trkpt lat="47.21763" lon="-2.17111">
        <ele>-4.67</ele>
        <time>2020-05-15T15:28:16Z</time>
      </trkpt>
      <trkpt lat="47.21749" lon="-2.17084">
        <ele>-4.67</ele>
        <time>2020-05-15T15:28:18Z</time>
      </trkpt>
      <trkpt lat="47.21706" lon="-2.17034">
        <ele>-4.67</ele>
        <time>2020-05-15T15:28:23Z</time>
      </trkpt>
      <trkpt lat="47.21589" lon="-2.16944">
        <ele>-4.19</ele>
        <time>2020-05-15T15:28:35Z</time>
      </trkpt>
      <trkpt lat="47.21553" lon="-2.16959">
        <ele>-4.19</ele>
        <time>2020-05-15T15:28:39Z</time>
      </trkpt>
      <trkpt lat="47.21566" lon="-2.17006">
        <ele>-4.19</ele>
        <time>2020-05-15T15:28:43Z</time>
      </trkpt>
      <trkpt lat="47.21573" lon="-2.17013">
        <ele>-4.19</ele>
        <time>2020-05-15T15:28:44Z</time>
      </trkpt>
      <trkpt lat="47.21632" lon="-2.17079">
        <ele>-5.15</ele>
        <time>2020-05-15T15:28:53Z</time>
      </trkpt>
      <trkpt lat="47.21692" lon="-2.17175">
        <ele>-5.15</ele>
        <time>2020-05-15T15:29:05Z</time>
      </trkpt>
      <trkpt lat="47.21733" lon="-2.17228">
        <ele>-5.63</ele>
        <time>2020-05-15T15:29:12Z</time>
      </trkpt>
      <trkpt lat="47.21774" lon="-2.17265">
        <ele>-5.15</ele>
        <time>2020-05-15T15:29:17Z</time>
      </trkpt>
      <trkpt lat="47.21807" lon="-2.17303">
        <ele>-5.15</ele>
        <time>2020-05-15T15:29:21Z</time>
      </trkpt>
      <trkpt lat="47.21828" lon="-2.17288">
        <ele>-5.15</ele>
        <time>2020-05-15T15:29:26Z</time>
      </trkpt>
      <trkpt lat="47.21822" lon="-2.17283">
        <ele>-5.15</ele>
        <time>2020-05-15T15:29:27Z</time>
      </trkpt>
      <trkpt lat="47.21786" lon="-2.17289">
        <ele>-4.67</ele>
        <time>2020-05-15T15:29:35Z</time>
      </trkpt>
      <trkpt lat="47.21775" lon="-2.1728">
        <ele>-4.19</ele>
        <time>2020-05-15T15:29:38Z</time>
      </trkpt>
      <trkpt lat="47.21733" lon="-2.1723">
        <ele>-4.67</ele>
        <time>2020-05-15T15:29:50Z</time>
      </trkpt>
      <trkpt lat="47.21716" lon="-2.17202">
        <ele>-4.67</ele>
        <time>2020-05-15T15:29:56Z</time>
      </trkpt>
      <trkpt lat="47.21701" lon="-2.17181">
        <ele>-4.67</ele>
        <time>2020-05-15T15:30:00Z</time>
      </trkpt>
      <trkpt lat="47.21658" lon="-2.17135">
        <ele>-4.67</ele>
        <time>2020-05-15T15:30:09Z</time>
      </trkpt>
      <trkpt lat="47.2164" lon="-2.1711">
        <ele>-4.67</ele>
        <time>2020-05-15T15:30:14Z</time>
      </trkpt>
      <trkpt lat="47.21623" lon="-2.17093">
        <ele>-5.15</ele>
        <time>2020-05-15T15:30:23Z</time>
      </trkpt>
      <trkpt lat="47.21612" lon="-2.17079">
        <ele>-5.15</ele>
        <time>2020-05-15T15:30:37Z</time>
      </trkpt>
      <trkpt lat="47.21609" lon="-2.17073">
        <ele>-5.15</ele>
        <time>2020-05-15T15:30:51Z</time>
      </trkpt>
      <trkpt lat="47.21594" lon="-2.17047">
        <ele>-5.15</ele>
        <time>2020-05-15T15:31:05Z</time>
      </trkpt>
      <trkpt lat="47.21592" lon="-2.17035">
        <ele>-4.67</ele>
        <time>2020-05-15T15:31:20Z</time>
      </trkpt>
      <trkpt lat="47.21585" lon="-2.17016">
        <ele>-4.67</ele>
        <time>2020-05-15T15:31:31Z</time>
      </trkpt>
      <trkpt lat="47.21587" lon="-2.17016">
        <ele>-4.67</ele>
        <time>2020-05-15T15:31:37Z</time>
      </trkpt>
      <trkpt lat="47.21569" lon="-2.16965">
        <ele>-5.15</ele>
        <time>2020-05-15T15:31:51Z</time>
      </trkpt>
      <trkpt lat="47.21557" lon="-2.16933">
        <ele>-4.19</ele>
        <time>2020-05-15T15:32:03Z</time>
      </trkpt>
      <trkpt lat="47.21557" lon="-2.16918">
        <ele>-3.71</ele>
        <time>2020-05-15T15:32:13Z</time>
      </trkpt>
      <trkpt lat="47.2156" lon="-2.16917">
        <ele>-3.71</ele>
        <time>2020-05-15T15:32:16Z</time>
      </trkpt>
      <trkpt lat="47.2158" lon="-2.16935">
        <ele>-4.19</ele>
        <time>2020-05-15T15:32:30Z</time>
      </trkpt>
      <trkpt lat="47.21613" lon="-2.1697">
        <ele>-4.67</ele>
        <time>2020-05-15T15:32:42Z</time>
      </trkpt>
      <trkpt lat="47.2164" lon="-2.17001">
        <ele>-5.15</ele>
        <time>2020-05-15T15:32:49Z</time>
      </trkpt>
      <trkpt lat="47.21653" lon="-2.16993">
        <ele>-5.63</ele>
        <time>2020-05-15T15:32:54Z</time>
      </trkpt>
      <trkpt lat="47.21653" lon="-2.16987">
        <ele>-5.63</ele>
        <time>2020-05-15T15:32:55Z</time>
      </trkpt>
      <trkpt lat="47.2166" lon="-2.16965">
        <ele>-4.67</ele>
        <time>2020-05-15T15:33:05Z</time>
      </trkpt>
      <trkpt lat="47.21656" lon="-2.16966">
        <ele>-4.19</ele>
        <time>2020-05-15T15:33:25Z</time>
      </trkpt>
      <trkpt lat="47.21658" lon="-2.16969">
        <ele>-4.19</ele>
        <time>2020-05-15T15:33:30Z</time>
      </trkpt>
      <trkpt lat="47.21696" lon="-2.1701">
        <ele>-4.19</ele>
        <time>2020-05-15T15:33:48Z</time>
      </trkpt>
      <trkpt lat="47.21762" lon="-2.17087">
        <ele>-4.19</ele>
        <time>2020-05-15T15:34:04Z</time>
      </trkpt>
      <trkpt lat="47.2185" lon="-2.17193">
        <ele>-4.67</ele>
        <time>2020-05-15T15:34:20Z</time>
      </trkpt>
      <trkpt lat="47.21931" lon="-2.17306">
        <ele>-5.15</ele>
        <time>2020-05-15T15:34:36Z</time>
      </trkpt>
      <trkpt lat="47.22019" lon="-2.17395">
        <ele>-4.67</ele>
        <time>2020-05-15T15:34:49Z</time>
      </trkpt>
      <trkpt lat="47.22102" lon="-2.17506">
        <ele>-4.67</ele>
        <time>2020-05-15T15:35:03Z</time>
      </trkpt>
      <trkpt lat="47.22109" lon="-2.17515">
        <ele>-4.67</ele>
        <time>2020-05-15T15:35:04Z</time>
      </trkpt>
      <trkpt lat="47.22197" lon="-2.17579">
        <ele>-5.15</ele>
        <time>2020-05-15T15:35:15Z</time>
      </trkpt>
      <trkpt lat="47.22299" lon="-2.17638">
        <ele>-5.15</ele>
        <time>2020-05-15T15:35:28Z</time>
      </trkpt>
      <trkpt lat="47.22376" lon="-2.17711">
        <ele>-5.63</ele>
        <time>2020-05-15T15:35:41Z</time>
      </trkpt>
      <trkpt lat="47.22388" lon="-2.17706">
        <ele>-5.63</ele>
        <time>2020-05-15T15:35:45Z</time>
      </trkpt>
      <trkpt lat="47.22386" lon="-2.17683">
        <ele>-5.15</ele>
        <time>2020-05-15T15:35:55Z</time>
      </trkpt>
      <trkpt lat="47.22385" lon="-2.17683">
        <ele>-4.19</ele>
        <time>2020-05-15T15:36:20Z</time>
      </trkpt>
      <trkpt lat="47.22385" lon="-2.17683">
        <ele>-4.19</ele>
        <time>2020-05-15T15:36:45Z</time>
      </trkpt>
      <trkpt lat="47.22362" lon="-2.17638">
        <ele>-3.71</ele>
        <time>2020-05-15T15:36:59Z</time>
      </trkpt>
      <trkpt lat="47.22347" lon="-2.1763">
        <ele>-3.71</ele>
        <time>2020-05-15T15:37:04Z</time>
      </trkpt>
      <trkpt lat="47.2235" lon="-2.17647">
        <ele>-4.19</ele>
        <time>2020-05-15T15:37:09Z</time>
      </trkpt>
      <trkpt lat="47.22355" lon="-2.17662">
        <ele>-4.67</ele>
        <time>2020-05-15T15:37:12Z</time>
      </trkpt>
      <trkpt lat="47.22369" lon="-2.1766">
        <ele>-4.67</ele>
        <time>2020-05-15T15:37:17Z</time>
      </trkpt>
      <trkpt lat="47.22377" lon="-2.17647">
        <ele>-4.67</ele>
        <time>2020-05-15T15:37:20Z</time>
      </trkpt>
      <trkpt lat="47.2239" lon="-2.17651">
        <ele>-4.67</ele>
        <time>2020-05-15T15:37:25Z</time>
      </trkpt>
      <trkpt lat="47.2244" lon="-2.17718">
        <ele>-5.15</ele>
        <time>2020-05-15T15:37:40Z</time>
      </trkpt>
      <trkpt lat="47.22518" lon="-2.17823">
        <ele>-5.63</ele>
        <time>2020-05-15T15:37:56Z</time>
      </trkpt>
      <trkpt lat="47.22522" lon="-2.1783">
        <ele>-5.63</ele>
        <time>2020-05-15T15:37:57Z</time>
      </trkpt>
      <trkpt lat="47.22563" lon="-2.17893">
        <ele>-5.63</ele>
        <time>2020-05-15T15:38:06Z</time>
      </trkpt>
      <trkpt lat="47.22583" lon="-2.17893">
        <ele>-5.15</ele>
        <time>2020-05-15T15:38:10Z</time>
      </trkpt>
      <trkpt lat="47.22608" lon="-2.17825">
        <ele>-3.71</ele>
        <time>2020-05-15T15:38:20Z</time>
      </trkpt>
      <trkpt lat="47.22626" lon="-2.17821">
        <ele>-3.71</ele>
        <time>2020-05-15T15:38:25Z</time>
      </trkpt>
      <trkpt lat="47.22635" lon="-2.17838">
        <ele>-3.71</ele>
        <time>2020-05-15T15:38:29Z</time>
      </trkpt>
      <trkpt lat="47.22662" lon="-2.17869">
        <ele>-3.71</ele>
        <time>2020-05-15T15:38:38Z</time>
      </trkpt>
      <trkpt lat="47.22714" lon="-2.1792">
        <ele>-4.19</ele>
        <time>2020-05-15T15:38:47Z</time>
      </trkpt>
      <trkpt lat="47.22774" lon="-2.17982">
        <ele>-4.19</ele>
        <time>2020-05-15T15:38:57Z</time>
      </trkpt>
      <trkpt lat="47.22875" lon="-2.18063">
        <ele>-4.67</ele>
        <time>2020-05-15T15:39:13Z</time>
      </trkpt>
      <trkpt lat="47.22975" lon="-2.18138">
        <ele>-5.15</ele>
        <time>2020-05-15T15:39:26Z</time>
      </trkpt>
      <trkpt lat="47.2303" lon="-2.18173">
        <ele>-5.63</ele>
        <time>2020-05-15T15:39:33Z</time>
      </trkpt>
      <trkpt lat="47.23058" lon="-2.1821">
        <ele>-5.63</ele>
        <time>2020-05-15T15:39:38Z</time>
      </trkpt>
      <trkpt lat="47.23085" lon="-2.18208">
        <ele>-5.63</ele>
        <time>2020-05-15T15:39:44Z</time>
      </trkpt>
      <trkpt lat="47.23062" lon="-2.1814">
        <ele>-5.15</ele>
        <time>2020-05-15T15:39:53Z</time>
      </trkpt>
      <trkpt lat="47.23036" lon="-2.18142">
        <ele>-4.67</ele>
        <time>2020-05-15T15:39:59Z</time>
      </trkpt>
      <trkpt lat="47.23036" lon="-2.1815">
        <ele>-4.67</ele>
        <time>2020-05-15T15:40:00Z</time>
      </trkpt>
      <trkpt lat="47.23051" lon="-2.18184">
        <ele>-4.67</ele>
        <time>2020-05-15T15:40:05Z</time>
      </trkpt>
      <trkpt lat="47.23096" lon="-2.18237">
        <ele>-4.67</ele>
        <time>2020-05-15T15:40:16Z</time>
      </trkpt>
      <trkpt lat="47.23177" lon="-2.18304">
        <ele>-5.63</ele>
        <time>2020-05-15T15:40:30Z</time>
      </trkpt>
      <trkpt lat="47.23184" lon="-2.18308">
        <ele>-5.63</ele>
        <time>2020-05-15T15:40:31Z</time>
      </trkpt>
      <trkpt lat="47.23202" lon="-2.18291">
        <ele>-5.15</ele>
        <time>2020-05-15T15:40:36Z</time>
      </trkpt>
      <trkpt lat="47.23176" lon="-2.18274">
        <ele>-4.19</ele>
        <time>2020-05-15T15:40:42Z</time>
      </trkpt>
      <trkpt lat="47.23167" lon="-2.18277">
        <ele>-4.19</ele>
        <time>2020-05-15T15:40:44Z</time>
      </trkpt>
      <trkpt lat="47.23121" lon="-2.18245">
        <ele>-4.19</ele>
        <time>2020-05-15T15:40:54Z</time>
      </trkpt>
      <trkpt lat="47.231" lon="-2.18168">
        <ele>-3.71</ele>
        <time>2020-05-15T15:41:02Z</time>
      </trkpt>
      <trkpt lat="47.23063" lon="-2.18138">
        <ele>-3.71</ele>
        <time>2020-05-15T15:41:07Z</time>
      </trkpt>
      <trkpt lat="47.23012" lon="-2.18112">
        <ele>-3.71</ele>
        <time>2020-05-15T15:41:13Z</time>
      </trkpt>
      <trkpt lat="47.22916" lon="-2.18061">
        <ele>-3.71</ele>
        <time>2020-05-15T15:41:27Z</time>
      </trkpt>
      <trkpt lat="47.22911" lon="-2.18056">
        <ele>-3.71</ele>
        <time>2020-05-15T15:41:28Z</time>
      </trkpt>
      <trkpt lat="47.22857" lon="-2.18001">
        <ele>-3.71</ele>
        <time>2020-05-15T15:41:40Z</time>
      </trkpt>
      <trkpt lat="47.22774" lon="-2.17931">
        <ele>-3.23</ele>
        <time>2020-05-15T15:41:54Z</time>
      </trkpt>
      <trkpt lat="47.22757" lon="-2.17918">
        <ele>-2.75</ele>
        <time>2020-05-15T15:41:56Z</time>
      </trkpt>
      <trkpt lat="47.22635" lon="-2.17862">
        <ele>-3.23</ele>
        <time>2020-05-15T15:42:08Z</time>
      </trkpt>
      <trkpt lat="47.22496" lon="-2.17772">
        <ele>-3.71</ele>
        <time>2020-05-15T15:42:22Z</time>
      </trkpt>
      <trkpt lat="47.22363" lon="-2.1765">
        <ele>-3.71</ele>
        <time>2020-05-15T15:42:37Z</time>
      </trkpt>
      <trkpt lat="47.22335" lon="-2.17622">
        <ele>-3.71</ele>
        <time>2020-05-15T15:42:40Z</time>
      </trkpt>
      <trkpt lat="47.22253" lon="-2.17567">
        <ele>-3.23</ele>
        <time>2020-05-15T15:42:48Z</time>
      </trkpt>
      <trkpt lat="47.2218" lon="-2.17496">
        <ele>-3.71</ele>
        <time>2020-05-15T15:42:56Z</time>
      </trkpt>
      <trkpt lat="47.2211" lon="-2.17426">
        <ele>-3.71</ele>
        <time>2020-05-15T15:43:04Z</time>
      </trkpt>
      <trkpt lat="47.22074" lon="-2.17409">
        <ele>-3.71</ele>
        <time>2020-05-15T15:43:08Z</time>
      </trkpt>
      <trkpt lat="47.22038" lon="-2.17377">
        <ele>-3.23</ele>
        <time>2020-05-15T15:43:14Z</time>
      </trkpt>
      <trkpt lat="47.22057" lon="-2.17375">
        <ele>-3.23</ele>
        <time>2020-05-15T15:43:18Z</time>
      </trkpt>
      <trkpt lat="47.22142" lon="-2.17449">
        <ele>-3.71</ele>
        <time>2020-05-15T15:43:37Z</time>
      </trkpt>
      <trkpt lat="47.22186" lon="-2.17496">
        <ele>-3.23</ele>
        <time>2020-05-15T15:43:48Z</time>
      </trkpt>
      <trkpt lat="47.2225" lon="-2.17554">
        <ele>-3.23</ele>
        <time>2020-05-15T15:44:02Z</time>
      </trkpt>
      <trkpt lat="47.22341" lon="-2.17623">
        <ele>-3.71</ele>
        <time>2020-05-15T15:44:15Z</time>
      </trkpt>
      <trkpt lat="47.22458" lon="-2.17718">
        <ele>-4.19</ele>
        <time>2020-05-15T15:44:29Z</time>
      </trkpt>
      <trkpt lat="47.22499" lon="-2.17751">
        <ele>-3.71</ele>
        <time>2020-05-15T15:44:34Z</time>
      </trkpt>
      <trkpt lat="47.22625" lon="-2.17869">
        <ele>-4.19</ele>
        <time>2020-05-15T15:44:49Z</time>
      </trkpt>
      <trkpt lat="47.22634" lon="-2.17879">
        <ele>-4.19</ele>
        <time>2020-05-15T15:44:50Z</time>
      </trkpt>
      <trkpt lat="47.22649" lon="-2.17899">
        <ele>-4.19</ele>
        <time>2020-05-15T15:44:52Z</time>
      </trkpt>
      <trkpt lat="47.2267" lon="-2.17927">
        <ele>-4.19</ele>
        <time>2020-05-15T15:44:55Z</time>
      </trkpt>
      <trkpt lat="47.22706" lon="-2.18006">
        <ele>-4.19</ele>
        <time>2020-05-15T15:45:02Z</time>
      </trkpt>
      <trkpt lat="47.22759" lon="-2.18085">
        <ele>-4.67</ele>
        <time>2020-05-15T15:45:10Z</time>
      </trkpt>
      <trkpt lat="47.22791" lon="-2.1808">
        <ele>-5.15</ele>
        <time>2020-05-15T15:45:15Z</time>
      </trkpt>
      <trkpt lat="47.22793" lon="-2.18071">
        <ele>-5.15</ele>
        <time>2020-05-15T15:45:16Z</time>
      </trkpt>
      <trkpt lat="47.22797" lon="-2.18029">
        <ele>-5.15</ele>
        <time>2020-05-15T15:45:21Z</time>
      </trkpt>
      <trkpt lat="47.22804" lon="-2.18003">
        <ele>-4.67</ele>
        <time>2020-05-15T15:45:25Z</time>
      </trkpt>
      <trkpt lat="47.2282" lon="-2.18011">
        <ele>-4.67</ele>
        <time>2020-05-15T15:45:31Z</time>
      </trkpt>
      <trkpt lat="47.22864" lon="-2.18071">
        <ele>-4.19</ele>
        <time>2020-05-15T15:45:43Z</time>
      </trkpt>
      <trkpt lat="47.22878" lon="-2.18088">
        <ele>-4.67</ele>
        <time>2020-05-15T15:45:46Z</time>
      </trkpt>
      <trkpt lat="47.229" lon="-2.18121">
        <ele>-4.67</ele>
        <time>2020-05-15T15:45:51Z</time>
      </trkpt>
      <trkpt lat="47.22951" lon="-2.18179">
        <ele>-5.15</ele>
        <time>2020-05-15T15:46:01Z</time>
      </trkpt>
      <trkpt lat="47.22969" lon="-2.18162">
        <ele>-5.63</ele>
        <time>2020-05-15T15:46:06Z</time>
      </trkpt>
      <trkpt lat="47.22974" lon="-2.18148">
        <ele>-5.15</ele>
        <time>2020-05-15T15:46:08Z</time>
      </trkpt>
      <trkpt lat="47.22979" lon="-2.18135">
        <ele>-5.15</ele>
        <time>2020-05-15T15:46:10Z</time>
      </trkpt>
      <trkpt lat="47.23" lon="-2.1814">
        <ele>-5.15</ele>
        <time>2020-05-15T15:46:17Z</time>
      </trkpt>
      <trkpt lat="47.2301" lon="-2.18165">
        <ele>-4.67</ele>
        <time>2020-05-15T15:46:23Z</time>
      </trkpt>
      <trkpt lat="47.23061" lon="-2.18201">
        <ele>-4.19</ele>
        <time>2020-05-15T15:46:43Z</time>
      </trkpt>
      <trkpt lat="47.23114" lon="-2.1823">
        <ele>-4.19</ele>
        <time>2020-05-15T15:47:08Z</time>
      </trkpt>
      <trkpt lat="47.23123" lon="-2.18233">
        <ele>-3.71</ele>
        <time>2020-05-15T15:47:28Z</time>
      </trkpt>
      <trkpt lat="47.23123" lon="-2.18234">
        <ele>-4.19</ele>
        <time>2020-05-15T15:48:03Z</time>
      </trkpt>
      <trkpt lat="47.23123" lon="-2.18234">
        <ele>-4.19</ele>
        <time>2020-05-15T15:48:27Z</time>
      </trkpt>
      <trkpt lat="47.23127" lon="-2.1824">
        <ele>-4.19</ele>
        <time>2020-05-15T15:48:42Z</time>
      </trkpt>
      <trkpt lat="47.23128" lon="-2.18244">
        <ele>-4.19</ele>
        <time>2020-05-15T15:48:45Z</time>
      </trkpt>
      <trkpt lat="47.2312" lon="-2.18251">
        <ele>-3.71</ele>
        <time>2020-05-15T15:48:55Z</time>
      </trkpt>
      <trkpt lat="47.23084" lon="-2.18218">
        <ele>-3.71</ele>
        <time>2020-05-15T15:49:17Z</time>
      </trkpt>
      <trkpt lat="47.23033" lon="-2.18177">
        <ele>-3.23</ele>
        <time>2020-05-15T15:49:35Z</time>
      </trkpt>
      <trkpt lat="47.22963" lon="-2.18129">
        <ele>-3.71</ele>
        <time>2020-05-15T15:49:52Z</time>
      </trkpt>
      <trkpt lat="47.22949" lon="-2.18106">
        <ele>-3.71</ele>
        <time>2020-05-15T15:49:57Z</time>
      </trkpt>
      <trkpt lat="47.22934" lon="-2.18081">
        <ele>-3.71</ele>
        <time>2020-05-15T15:50:02Z</time>
      </trkpt>
      <trkpt lat="47.2288" lon="-2.18016">
        <ele>-2.75</ele>
        <time>2020-05-15T15:50:19Z</time>
      </trkpt>
      <trkpt lat="47.22829" lon="-2.17968">
        <ele>-3.23</ele>
        <time>2020-05-15T15:50:40Z</time>
      </trkpt>
      <trkpt lat="47.22797" lon="-2.17937">
        <ele>-3.23</ele>
        <time>2020-05-15T15:50:56Z</time>
      </trkpt>
      <trkpt lat="47.22788" lon="-2.1793">
        <ele>-3.23</ele>
        <time>2020-05-15T15:51:13Z</time>
      </trkpt>
      <trkpt lat="47.22752" lon="-2.17906">
        <ele>-2.75</ele>
        <time>2020-05-15T15:51:28Z</time>
      </trkpt>
      <trkpt lat="47.22703" lon="-2.17877">
        <ele>-3.23</ele>
        <time>2020-05-15T15:51:38Z</time>
      </trkpt>
      <trkpt lat="47.22657" lon="-2.17838">
        <ele>-2.75</ele>
        <time>2020-05-15T15:51:51Z</time>
      </trkpt>
      <trkpt lat="47.22639" lon="-2.17823">
        <ele>-2.75</ele>
        <time>2020-05-15T15:51:56Z</time>
      </trkpt>
      <trkpt lat="47.22632" lon="-2.17788">
        <ele>-2.27</ele>
        <time>2020-05-15T15:52:01Z</time>
      </trkpt>
      <trkpt lat="47.22612" lon="-2.1772">
        <ele>-2.27</ele>
        <time>2020-05-15T15:52:08Z</time>
      </trkpt>
      <trkpt lat="47.22574" lon="-2.17677">
        <ele>-1.79</ele>
        <time>2020-05-15T15:52:14Z</time>
      </trkpt>
      <trkpt lat="47.22443" lon="-2.17626">
        <ele>-1.79</ele>
        <time>2020-05-15T15:52:30Z</time>
      </trkpt>
      <trkpt lat="47.22358" lon="-2.17565">
        <ele>-2.27</ele>
        <time>2020-05-15T15:52:43Z</time>
      </trkpt>
      <trkpt lat="47.22346" lon="-2.17558">
        <ele>-2.27</ele>
        <time>2020-05-15T15:52:45Z</time>
      </trkpt>
      <trkpt lat="47.22287" lon="-2.17515">
        <ele>-2.27</ele>
        <time>2020-05-15T15:53:00Z</time>
      </trkpt>
      <trkpt lat="47.22284" lon="-2.17514">
        <ele>-2.27</ele>
        <time>2020-05-15T15:53:01Z</time>
      </trkpt>
      <trkpt lat="47.2228" lon="-2.17525">
        <ele>-2.27</ele>
        <time>2020-05-15T15:53:05Z</time>
      </trkpt>
      <trkpt lat="47.22311" lon="-2.17581">
        <ele>-2.75</ele>
        <time>2020-05-15T15:53:19Z</time>
      </trkpt>
      <trkpt lat="47.22319" lon="-2.17603">
        <ele>-2.75</ele>
        <time>2020-05-15T15:53:22Z</time>
      </trkpt>
      <trkpt lat="47.22369" lon="-2.17659">
        <ele>-3.71</ele>
        <time>2020-05-15T15:53:31Z</time>
      </trkpt>
      <trkpt lat="47.2238" lon="-2.17671">
        <ele>-4.19</ele>
        <time>2020-05-15T15:53:33Z</time>
      </trkpt>
      <trkpt lat="47.22398" lon="-2.17658">
        <ele>-3.71</ele>
        <time>2020-05-15T15:53:38Z</time>
      </trkpt>
      <trkpt lat="47.224" lon="-2.1765">
        <ele>-3.71</ele>
        <time>2020-05-15T15:53:39Z</time>
      </trkpt>
      <trkpt lat="47.22431" lon="-2.17581">
        <ele>-2.75</ele>
        <time>2020-05-15T15:53:51Z</time>
      </trkpt>
      <trkpt lat="47.22444" lon="-2.17592">
        <ele>-2.27</ele>
        <time>2020-05-15T15:53:57Z</time>
      </trkpt>
      <trkpt lat="47.22484" lon="-2.17649">
        <ele>-2.27</ele>
        <time>2020-05-15T15:54:08Z</time>
      </trkpt>
      <trkpt lat="47.22554" lon="-2.17754">
        <ele>-2.75</ele>
        <time>2020-05-15T15:54:21Z</time>
      </trkpt>
      <trkpt lat="47.22655" lon="-2.17885">
        <ele>-3.71</ele>
        <time>2020-05-15T15:54:34Z</time>
      </trkpt>
      <trkpt lat="47.22729" lon="-2.18009">
        <ele>-4.19</ele>
        <time>2020-05-15T15:54:44Z</time>
      </trkpt>
      <trkpt lat="47.22766" lon="-2.18069">
        <ele>-4.67</ele>
        <time>2020-05-15T15:54:48Z</time>
      </trkpt>
      <trkpt lat="47.228" lon="-2.181">
        <ele>-4.67</ele>
        <time>2020-05-15T15:54:51Z</time>
      </trkpt>
      <trkpt lat="47.22842" lon="-2.1812">
        <ele>-5.15</ele>
        <time>2020-05-15T15:54:55Z</time>
      </trkpt>
      <trkpt lat="47.22908" lon="-2.18158">
        <ele>-5.15</ele>
        <time>2020-05-15T15:55:02Z</time>
      </trkpt>
      <trkpt lat="47.22951" lon="-2.18177">
        <ele>-5.15</ele>
        <time>2020-05-15T15:55:06Z</time>
      </trkpt>
      <trkpt lat="47.23055" lon="-2.18227">
        <ele>-4.67</ele>
        <time>2020-05-15T15:55:17Z</time>
      </trkpt>
      <trkpt lat="47.23147" lon="-2.18282">
        <ele>-4.19</ele>
        <time>2020-05-15T15:55:28Z</time>
      </trkpt>
      <trkpt lat="47.23175" lon="-2.1827">
        <ele>-4.19</ele>
        <time>2020-05-15T15:55:33Z</time>
      </trkpt>
      <trkpt lat="47.23179" lon="-2.18247">
        <ele>-4.19</ele>
        <time>2020-05-15T15:55:37Z</time>
      </trkpt>
      <trkpt lat="47.23174" lon="-2.18225">
        <ele>-3.23</ele>
        <time>2020-05-15T15:55:50Z</time>
      </trkpt>
      <trkpt lat="47.23172" lon="-2.18215">
        <ele>-3.23</ele>
        <time>2020-05-15T15:56:07Z</time>
      </trkpt>
      <trkpt lat="47.23173" lon="-2.18196">
        <ele>-2.75</ele>
        <time>2020-05-15T15:56:27Z</time>
      </trkpt>
      <trkpt lat="47.23173" lon="-2.18196">
        <ele>-2.27</ele>
        <time>2020-05-15T15:57:09Z</time>
      </trkpt>
      <trkpt lat="47.23173" lon="-2.18195">
        <ele>-2.75</ele>
        <time>2020-05-15T15:57:46Z</time>
      </trkpt>
      <trkpt lat="47.23173" lon="-2.18197">
        <ele>-2.27</ele>
        <time>2020-05-15T15:58:05Z</time>
      </trkpt>
      <trkpt lat="47.23175" lon="-2.18191">
        <ele>-2.75</ele>
        <time>2020-05-15T15:58:24Z</time>
      </trkpt>
      <trkpt lat="47.23176" lon="-2.18189">
        <ele>-2.75</ele>
        <time>2020-05-15T15:58:26Z</time>
      </trkpt>
      <trkpt lat="47.2318" lon="-2.18164">
        <ele>-2.27</ele>
        <time>2020-05-15T15:58:43Z</time>
      </trkpt>
      <trkpt lat="47.23182" lon="-2.18143">
        <ele>-1.79</ele>
        <time>2020-05-15T15:58:55Z</time>
      </trkpt>
      <trkpt lat="47.23182" lon="-2.18142">
        <ele>-1.79</ele>
        <time>2020-05-15T15:59:13Z</time>
      </trkpt>
      <trkpt lat="47.23182" lon="-2.18141">
        <ele>-1.3</ele>
        <time>2020-05-15T15:59:41Z</time>
      </trkpt>
      <trkpt lat="47.23181" lon="-2.18142">
        <ele>-1.3</ele>
        <time>2020-05-15T15:59:51Z</time>
      </trkpt>
    </trkseg>
  </trk>
</gpx>